sensor_id;sensor_type;location;lat;lon;timestamp;P1;durP1;ratioP1;P2;durP2;ratioP2
57746;SDS011;43580;44.014;20.466;2022-09-09T00:07:10;18.65;;;10.23;;
57746;SDS011;43580;44.014;20.466;2022-09-09T00:09:45;22.25;;;10.52;;
57746;SDS011;43580;44.014;20.466;2022-09-09T00:12:18;16.70;;;10.35;;
57746;SDS011;43580;44.014;20.466;2022-09-09T00:15:02;15.10;;;10.20;;
57746;SDS011;43580;44.014;20.466;2022-09-09T00:22:30;24.98;;;9.90;;
57746;SDS011;43580;44.014;20.466;2022-09-09T00:25:10;20.30;;;10.38;;
57746;SDS011;43580;44.014;20.466;2022-09-09T00:27:40;17.98;;;10.00;;
57746;SDS011;43580;44.014;20.466;2022-09-09T00:30:15;17.30;;;9.68;;
57746;SDS011;43580;44.014;20.466;2022-09-09T00:32:44;17.17;;;10.00;;
57746;SDS011;43580;44.014;20.466;2022-09-09T00:37:37;19.40;;;11.05;;
57746;SDS011;43580;44.014;20.466;2022-09-09T00:40:11;18.85;;;10.07;;
57746;SDS011;43580;44.014;20.466;2022-09-09T00:42:43;16.88;;;10.43;;
57746;SDS011;43580;44.014;20.466;2022-09-09T00:47:54;15.38;;;9.75;;
57746;SDS011;43580;44.014;20.466;2022-09-09T00:58:10;17.20;;;9.90;;
57746;SDS011;43580;44.014;20.466;2022-09-09T01:00:52;19.50;;;9.70;;
57746;SDS011;43580;44.014;20.466;2022-09-09T01:03:37;18.17;;;10.23;;
57746;SDS011;43580;44.014;20.466;2022-09-09T01:06:18;17.38;;;9.50;;
57746;SDS011;43580;44.014;20.466;2022-09-09T01:11:32;19.73;;;10.93;;
57746;SDS011;43580;44.014;20.466;2022-09-09T01:16:44;22.20;;;10.05;;
57746;SDS011;43580;44.014;20.466;2022-09-09T01:19:13;14.60;;;9.82;;
57746;SDS011;43580;44.014;20.466;2022-09-09T01:21:50;15.18;;;9.40;;
57746;SDS011;43580;44.014;20.466;2022-09-09T01:24:22;15.50;;;9.85;;
57746;SDS011;43580;44.014;20.466;2022-09-09T01:26:54;20.33;;;10.35;;
57746;SDS011;43580;44.014;20.466;2022-09-09T01:29:22;19.70;;;11.85;;
57746;SDS011;43580;44.014;20.466;2022-09-09T01:34:17;12.95;;;9.35;;
57746;SDS011;43580;44.014;20.466;2022-09-09T01:36:59;15.73;;;9.85;;
57746;SDS011;43580;44.014;20.466;2022-09-09T01:39:27;16.20;;;9.43;;
57746;SDS011;43580;44.014;20.466;2022-09-09T01:41:54;20.38;;;10.75;;
57746;SDS011;43580;44.014;20.466;2022-09-09T01:44:21;17.88;;;9.77;;
57746;SDS011;43580;44.014;20.466;2022-09-09T01:46:47;15.57;;;9.88;;
57746;SDS011;43580;44.014;20.466;2022-09-09T01:49:13;15.98;;;10.90;;
57746;SDS011;43580;44.014;20.466;2022-09-09T01:51:39;20.10;;;9.23;;
57746;SDS011;43580;44.014;20.466;2022-09-09T01:54:06;21.08;;;9.82;;
57746;SDS011;43580;44.014;20.466;2022-09-09T02:04:47;20.48;;;11.27;;
57746;SDS011;43580;44.014;20.466;2022-09-09T02:07:19;20.25;;;10.48;;
57746;SDS011;43580;44.014;20.466;2022-09-09T02:09:51;14.88;;;9.57;;
57746;SDS011;43580;44.014;20.466;2022-09-09T02:12:21;17.10;;;9.68;;
57746;SDS011;43580;44.014;20.466;2022-09-09T02:15:02;17.08;;;9.40;;
57746;SDS011;43580;44.014;20.466;2022-09-09T02:17:30;16.85;;;9.43;;
57746;SDS011;43580;44.014;20.466;2022-09-09T02:20:07;16.73;;;9.68;;
57746;SDS011;43580;44.014;20.466;2022-09-09T02:22:34;16.73;;;10.10;;
57746;SDS011;43580;44.014;20.466;2022-09-09T02:25:08;16.05;;;10.88;;
57746;SDS011;43580;44.014;20.466;2022-09-09T02:27:35;17.92;;;11.43;;
57746;SDS011;43580;44.014;20.466;2022-09-09T02:30:03;19.20;;;11.00;;
57746;SDS011;43580;44.014;20.466;2022-09-09T02:32:30;17.35;;;9.43;;
57746;SDS011;43580;44.014;20.466;2022-09-09T02:35:00;15.00;;;10.07;;
57746;SDS011;43580;44.014;20.466;2022-09-09T02:37:29;17.10;;;10.60;;
57746;SDS011;43580;44.014;20.466;2022-09-09T02:39:58;16.23;;;9.70;;
57746;SDS011;43580;44.014;20.466;2022-09-09T02:42:24;20.00;;;10.88;;
57746;SDS011;43580;44.014;20.466;2022-09-09T02:44:50;18.58;;;10.57;;
57746;SDS011;43580;44.014;20.466;2022-09-09T02:49:52;16.13;;;10.20;;
57746;SDS011;43580;44.014;20.466;2022-09-09T02:52:26;19.75;;;11.20;;
57746;SDS011;43580;44.014;20.466;2022-09-09T02:54:54;24.05;;;10.43;;
57746;SDS011;43580;44.014;20.466;2022-09-09T02:57:25;22.15;;;10.63;;
57746;SDS011;43580;44.014;20.466;2022-09-09T02:59:52;22.75;;;11.52;;
57746;SDS011;43580;44.014;20.466;2022-09-09T03:02:21;15.52;;;10.73;;
57746;SDS011;43580;44.014;20.466;2022-09-09T03:04:48;17.48;;;10.32;;
57746;SDS011;43580;44.014;20.466;2022-09-09T03:07:16;18.15;;;11.10;;
57746;SDS011;43580;44.014;20.466;2022-09-09T03:09:43;18.92;;;10.00;;
57746;SDS011;43580;44.014;20.466;2022-09-09T03:12:09;20.00;;;11.15;;
57746;SDS011;43580;44.014;20.466;2022-09-09T03:14:36;15.32;;;10.15;;
57746;SDS011;43580;44.014;20.466;2022-09-09T03:17:03;15.00;;;9.95;;
57746;SDS011;43580;44.014;20.466;2022-09-09T03:19:29;18.58;;;11.50;;
57746;SDS011;43580;44.014;20.466;2022-09-09T03:21:56;15.32;;;10.52;;
57746;SDS011;43580;44.014;20.466;2022-09-09T03:24:23;17.77;;;9.93;;
57746;SDS011;43580;44.014;20.466;2022-09-09T03:26:49;20.35;;;10.98;;
57746;SDS011;43580;44.014;20.466;2022-09-09T03:29:15;15.88;;;10.60;;
57746;SDS011;43580;44.014;20.466;2022-09-09T03:31:42;18.35;;;10.68;;
57746;SDS011;43580;44.014;20.466;2022-09-09T03:34:08;17.13;;;11.40;;
57746;SDS011;43580;44.014;20.466;2022-09-09T03:36:34;14.93;;;10.73;;
57746;SDS011;43580;44.014;20.466;2022-09-09T03:39:01;18.83;;;10.65;;
57746;SDS011;43580;44.014;20.466;2022-09-09T03:41:28;18.33;;;12.13;;
57746;SDS011;43580;44.014;20.466;2022-09-09T03:43:54;20.80;;;11.38;;
57746;SDS011;43580;44.014;20.466;2022-09-09T03:46:21;19.90;;;10.98;;
57746;SDS011;43580;44.014;20.466;2022-09-09T03:48:47;18.50;;;10.45;;
57746;SDS011;43580;44.014;20.466;2022-09-09T03:51:14;21.40;;;11.32;;
57746;SDS011;43580;44.014;20.466;2022-09-09T03:53:41;22.67;;;10.93;;
57746;SDS011;43580;44.014;20.466;2022-09-09T03:56:08;18.42;;;10.63;;
57746;SDS011;43580;44.014;20.466;2022-09-09T03:58:35;16.48;;;10.38;;
57746;SDS011;43580;44.014;20.466;2022-09-09T04:01:02;18.63;;;10.73;;
57746;SDS011;43580;44.014;20.466;2022-09-09T04:03:28;25.27;;;13.02;;
57746;SDS011;43580;44.014;20.466;2022-09-09T04:05:55;20.77;;;13.70;;
57746;SDS011;43580;44.014;20.466;2022-09-09T04:08:22;15.45;;;10.77;;
57746;SDS011;43580;44.014;20.466;2022-09-09T04:10:51;21.23;;;11.30;;
57746;SDS011;43580;44.014;20.466;2022-09-09T04:13:18;19.48;;;10.43;;
57746;SDS011;43580;44.014;20.466;2022-09-09T04:15:51;17.67;;;10.68;;
57746;SDS011;43580;44.014;20.466;2022-09-09T04:18:18;18.98;;;11.15;;
57746;SDS011;43580;44.014;20.466;2022-09-09T04:20:47;16.88;;;9.70;;
57746;SDS011;43580;44.014;20.466;2022-09-09T04:23:14;24.20;;;11.68;;
57746;SDS011;43580;44.014;20.466;2022-09-09T04:25:44;22.30;;;10.32;;
57746;SDS011;43580;44.014;20.466;2022-09-09T04:28:11;21.77;;;10.68;;
57746;SDS011;43580;44.014;20.466;2022-09-09T04:30:38;17.88;;;11.38;;
57746;SDS011;43580;44.014;20.466;2022-09-09T04:33:05;28.63;;;13.52;;
57746;SDS011;43580;44.014;20.466;2022-09-09T04:35:31;33.65;;;13.85;;
57746;SDS011;43580;44.014;20.466;2022-09-09T04:37:58;19.30;;;11.48;;
57746;SDS011;43580;44.014;20.466;2022-09-09T04:40:24;17.00;;;10.32;;
57746;SDS011;43580;44.014;20.466;2022-09-09T04:42:50;14.93;;;9.00;;
57746;SDS011;43580;44.014;20.466;2022-09-09T04:45:16;18.85;;;9.57;;
57746;SDS011;43580;44.014;20.466;2022-09-09T04:47:43;17.60;;;9.50;;
57746;SDS011;43580;44.014;20.466;2022-09-09T04:50:09;18.40;;;9.55;;
57746;SDS011;43580;44.014;20.466;2022-09-09T04:52:37;17.55;;;9.98;;
57746;SDS011;43580;44.014;20.466;2022-09-09T04:55:03;17.75;;;9.48;;
57746;SDS011;43580;44.014;20.466;2022-09-09T04:57:29;15.32;;;10.32;;
57746;SDS011;43580;44.014;20.466;2022-09-09T04:59:58;16.73;;;10.18;;
57746;SDS011;43580;44.014;20.466;2022-09-09T05:02:25;17.33;;;9.40;;
57746;SDS011;43580;44.014;20.466;2022-09-09T05:04:51;15.80;;;9.45;;
57746;SDS011;43580;44.014;20.466;2022-09-09T05:07:17;15.48;;;9.98;;
57746;SDS011;43580;44.014;20.466;2022-09-09T05:09:46;17.85;;;10.57;;
57746;SDS011;43580;44.014;20.466;2022-09-09T05:12:14;18.08;;;10.05;;
57746;SDS011;43580;44.014;20.466;2022-09-09T05:14:41;18.45;;;10.32;;
57746;SDS011;43580;44.014;20.466;2022-09-09T05:17:07;19.67;;;11.50;;
57746;SDS011;43580;44.014;20.466;2022-09-09T05:19:33;22.17;;;11.45;;
57746;SDS011;43580;44.014;20.466;2022-09-09T05:21:59;23.95;;;10.93;;
57746;SDS011;43580;44.014;20.466;2022-09-09T05:24:26;22.15;;;12.32;;
57746;SDS011;43580;44.014;20.466;2022-09-09T05:26:52;17.98;;;10.65;;
57746;SDS011;43580;44.014;20.466;2022-09-09T05:29:18;21.35;;;11.90;;
57746;SDS011;43580;44.014;20.466;2022-09-09T05:31:45;20.52;;;11.23;;
57746;SDS011;43580;44.014;20.466;2022-09-09T05:34:13;18.92;;;11.73;;
57746;SDS011;43580;44.014;20.466;2022-09-09T05:36:39;25.30;;;12.82;;
57746;SDS011;43580;44.014;20.466;2022-09-09T05:39:05;22.35;;;12.88;;
57746;SDS011;43580;44.014;20.466;2022-09-09T05:41:31;24.17;;;13.35;;
57746;SDS011;43580;44.014;20.466;2022-09-09T05:43:59;24.25;;;12.90;;
57746;SDS011;43580;44.014;20.466;2022-09-09T05:46:26;26.35;;;14.45;;
57746;SDS011;43580;44.014;20.466;2022-09-09T05:48:52;25.67;;;13.63;;
57746;SDS011;43580;44.014;20.466;2022-09-09T05:51:22;24.50;;;12.68;;
57746;SDS011;43580;44.014;20.466;2022-09-09T05:53:49;45.55;;;13.10;;
57746;SDS011;43580;44.014;20.466;2022-09-09T05:56:20;21.00;;;11.98;;
57746;SDS011;43580;44.014;20.466;2022-09-09T05:58:47;25.50;;;12.68;;
57746;SDS011;43580;44.014;20.466;2022-09-09T06:01:15;21.33;;;13.02;;
57746;SDS011;43580;44.014;20.466;2022-09-09T06:03:42;23.35;;;12.77;;
57746;SDS011;43580;44.014;20.466;2022-09-09T06:06:09;17.27;;;11.63;;
57746;SDS011;43580;44.014;20.466;2022-09-09T06:08:36;23.27;;;12.40;;
57746;SDS011;43580;44.014;20.466;2022-09-09T06:11:10;16.75;;;10.65;;
57746;SDS011;43580;44.014;20.466;2022-09-09T06:13:37;19.80;;;10.40;;
57746;SDS011;43580;44.014;20.466;2022-09-09T06:16:04;15.95;;;10.57;;
57746;SDS011;43580;44.014;20.466;2022-09-09T06:18:32;20.63;;;10.88;;
57746;SDS011;43580;44.014;20.466;2022-09-09T06:21:03;23.17;;;10.73;;
57746;SDS011;43580;44.014;20.466;2022-09-09T06:23:29;20.95;;;11.00;;
57746;SDS011;43580;44.014;20.466;2022-09-09T06:28:27;17.50;;;10.40;;
57746;SDS011;43580;44.014;20.466;2022-09-09T06:30:57;37.70;;;20.00;;
57746;SDS011;43580;44.014;20.466;2022-09-09T06:33:24;31.58;;;16.58;;
57746;SDS011;43580;44.014;20.466;2022-09-09T06:35:53;21.30;;;11.55;;
57746;SDS011;43580;44.014;20.466;2022-09-09T06:38:22;17.70;;;10.38;;
57746;SDS011;43580;44.014;20.466;2022-09-09T06:40:54;33.42;;;17.10;;
57746;SDS011;43580;44.014;20.466;2022-09-09T06:43:21;26.20;;;13.63;;
57746;SDS011;43580;44.014;20.466;2022-09-09T06:45:54;23.05;;;11.95;;
57746;SDS011;43580;44.014;20.466;2022-09-09T06:48:21;20.85;;;12.10;;
57746;SDS011;43580;44.014;20.466;2022-09-09T06:50:47;19.30;;;12.50;;
57746;SDS011;43580;44.014;20.466;2022-09-09T06:53:17;19.40;;;9.70;;
57746;SDS011;43580;44.014;20.466;2022-09-09T06:55:44;15.20;;;9.52;;
57746;SDS011;43580;44.014;20.466;2022-09-09T06:58:10;15.35;;;9.25;;
57746;SDS011;43580;44.014;20.466;2022-09-09T07:00:36;14.10;;;8.75;;
57746;SDS011;43580;44.014;20.466;2022-09-09T07:03:03;13.93;;;8.90;;
57746;SDS011;43580;44.014;20.466;2022-09-09T07:05:31;27.95;;;8.70;;
57746;SDS011;43580;44.014;20.466;2022-09-09T07:07:57;14.57;;;7.60;;
57746;SDS011;43580;44.014;20.466;2022-09-09T07:10:23;16.15;;;9.18;;
57746;SDS011;43580;44.014;20.466;2022-09-09T07:12:52;13.13;;;7.25;;
57746;SDS011;43580;44.014;20.466;2022-09-09T07:15:18;11.55;;;6.80;;
57746;SDS011;43580;44.014;20.466;2022-09-09T07:17:44;11.23;;;7.43;;
57746;SDS011;43580;44.014;20.466;2022-09-09T07:20:14;13.65;;;7.63;;
57746;SDS011;43580;44.014;20.466;2022-09-09T07:22:40;14.63;;;8.70;;
57746;SDS011;43580;44.014;20.466;2022-09-09T07:25:07;11.85;;;7.47;;
57746;SDS011;43580;44.014;20.466;2022-09-09T07:27:33;13.70;;;7.22;;
57746;SDS011;43580;44.014;20.466;2022-09-09T07:29:59;10.70;;;7.40;;
57746;SDS011;43580;44.014;20.466;2022-09-09T07:32:26;18.50;;;9.75;;
57746;SDS011;43580;44.014;20.466;2022-09-09T07:34:52;13.32;;;7.78;;
57746;SDS011;43580;44.014;20.466;2022-09-09T07:37:18;13.13;;;7.47;;
57746;SDS011;43580;44.014;20.466;2022-09-09T07:39:44;13.07;;;7.15;;
57746;SDS011;43580;44.014;20.466;2022-09-09T07:42:11;12.32;;;6.65;;
57746;SDS011;43580;44.014;20.466;2022-09-09T07:44:38;12.43;;;7.25;;
57746;SDS011;43580;44.014;20.466;2022-09-09T07:47:05;13.30;;;6.57;;
57746;SDS011;43580;44.014;20.466;2022-09-09T07:49:31;13.18;;;6.40;;
57746;SDS011;43580;44.014;20.466;2022-09-09T07:51:57;9.75;;;6.50;;
57746;SDS011;43580;44.014;20.466;2022-09-09T07:54:26;15.55;;;10.63;;
57746;SDS011;43580;44.014;20.466;2022-09-09T07:56:52;10.98;;;7.22;;
57746;SDS011;43580;44.014;20.466;2022-09-09T07:59:18;12.02;;;6.63;;
57746;SDS011;43580;44.014;20.466;2022-09-09T08:01:45;14.75;;;6.80;;
57746;SDS011;43580;44.014;20.466;2022-09-09T08:04:16;15.10;;;7.20;;
57746;SDS011;43580;44.014;20.466;2022-09-09T08:06:46;9.20;;;5.90;;
57746;SDS011;43580;44.014;20.466;2022-09-09T08:09:13;13.48;;;6.75;;
57746;SDS011;43580;44.014;20.466;2022-09-09T08:11:39;9.93;;;6.40;;
57746;SDS011;43580;44.014;20.466;2022-09-09T08:14:06;12.93;;;7.25;;
57746;SDS011;43580;44.014;20.466;2022-09-09T08:16:34;10.60;;;6.10;;
57746;SDS011;43580;44.014;20.466;2022-09-09T08:19:01;9.73;;;6.57;;
57746;SDS011;43580;44.014;20.466;2022-09-09T08:21:29;18.63;;;7.35;;
57746;SDS011;43580;44.014;20.466;2022-09-09T08:23:57;9.90;;;5.90;;
57746;SDS011;43580;44.014;20.466;2022-09-09T08:26:29;13.98;;;7.03;;
57746;SDS011;43580;44.014;20.466;2022-09-09T08:28:57;9.82;;;5.53;;
57746;SDS011;43580;44.014;20.466;2022-09-09T08:31:24;10.88;;;5.35;;
57746;SDS011;43580;44.014;20.466;2022-09-09T08:33:51;11.30;;;5.32;;
57746;SDS011;43580;44.014;20.466;2022-09-09T08:36:18;9.15;;;4.32;;
57746;SDS011;43580;44.014;20.466;2022-09-09T08:38:48;12.93;;;6.95;;
57746;SDS011;43580;44.014;20.466;2022-09-09T08:43:41;11.35;;;3.88;;
57746;SDS011;43580;44.014;20.466;2022-09-09T08:46:14;9.75;;;4.25;;
57746;SDS011;43580;44.014;20.466;2022-09-09T08:48:56;7.20;;;4.05;;
57746;SDS011;43580;44.014;20.466;2022-09-09T08:51:23;15.77;;;4.82;;
57746;SDS011;43580;44.014;20.466;2022-09-09T08:53:52;10.05;;;5.35;;
57746;SDS011;43580;44.014;20.466;2022-09-09T08:56:21;11.18;;;5.30;;
57746;SDS011;43580;44.014;20.466;2022-09-09T08:58:48;9.70;;;4.53;;
57746;SDS011;43580;44.014;20.466;2022-09-09T09:04:00;13.10;;;4.57;;
57746;SDS011;43580;44.014;20.466;2022-09-09T09:11:56;9.93;;;5.28;;
57746;SDS011;43580;44.014;20.466;2022-09-09T09:14:33;9.15;;;5.35;;
57746;SDS011;43580;44.014;20.466;2022-09-09T09:17:06;9.48;;;4.68;;
57746;SDS011;43580;44.014;20.466;2022-09-09T09:19:35;7.70;;;4.72;;
57746;SDS011;43580;44.014;20.466;2022-09-09T09:22:06;8.70;;;4.60;;
57746;SDS011;43580;44.014;20.466;2022-09-09T09:24:42;10.50;;;4.97;;
57746;SDS011;43580;44.014;20.466;2022-09-09T09:29:56;9.57;;;4.07;;
57746;SDS011;43580;44.014;20.466;2022-09-09T09:32:23;8.43;;;4.32;;
57746;SDS011;43580;44.014;20.466;2022-09-09T09:34:51;12.80;;;6.80;;
57746;SDS011;43580;44.014;20.466;2022-09-09T09:37:28;10.88;;;5.55;;
57746;SDS011;43580;44.014;20.466;2022-09-09T09:39:54;11.80;;;5.63;;
57746;SDS011;43580;44.014;20.466;2022-09-09T09:42:21;8.60;;;5.03;;
57746;SDS011;43580;44.014;20.466;2022-09-09T09:44:48;10.38;;;5.35;;
57746;SDS011;43580;44.014;20.466;2022-09-09T09:47:15;11.73;;;5.00;;
57746;SDS011;43580;44.014;20.466;2022-09-09T09:49:51;8.57;;;4.85;;
57746;SDS011;43580;44.014;20.466;2022-09-09T09:52:17;9.50;;;5.10;;
57746;SDS011;43580;44.014;20.466;2022-09-09T09:54:49;15.20;;;5.45;;
57746;SDS011;43580;44.014;20.466;2022-09-09T09:57:16;13.18;;;5.22;;
57746;SDS011;43580;44.014;20.466;2022-09-09T09:59:46;12.30;;;5.78;;
57746;SDS011;43580;44.014;20.466;2022-09-09T10:02:19;10.00;;;4.57;;
57746;SDS011;43580;44.014;20.466;2022-09-09T10:04:48;9.10;;;5.18;;
57746;SDS011;43580;44.014;20.466;2022-09-09T10:07:21;9.77;;;5.70;;
57746;SDS011;43580;44.014;20.466;2022-09-09T10:09:53;9.55;;;5.18;;
57746;SDS011;43580;44.014;20.466;2022-09-09T10:15:30;10.73;;;5.15;;
57746;SDS011;43580;44.014;20.466;2022-09-09T10:38:21;8.50;;;4.55;;
57746;SDS011;43580;44.014;20.466;2022-09-09T10:56:15;11.18;;;4.90;;
57746;SDS011;43580;44.014;20.466;2022-09-09T11:01:22;6.93;;;4.25;;
57746;SDS011;43580;44.014;20.466;2022-09-09T11:03:50;10.55;;;4.32;;
57746;SDS011;43580;44.014;20.466;2022-09-09T11:06:19;10.23;;;3.95;;
57746;SDS011;43580;44.014;20.466;2022-09-09T11:08:46;10.07;;;4.10;;
57746;SDS011;43580;44.014;20.466;2022-09-09T11:11:29;6.40;;;3.60;;
57746;SDS011;43580;44.014;20.466;2022-09-09T11:14:03;10.32;;;4.10;;
57746;SDS011;43580;44.014;20.466;2022-09-09T11:16:36;10.65;;;4.78;;
57746;SDS011;43580;44.014;20.466;2022-09-09T11:21:53;7.22;;;3.92;;
57746;SDS011;43580;44.014;20.466;2022-09-09T11:24:36;8.55;;;3.60;;
57746;SDS011;43580;44.014;20.466;2022-09-09T11:27:10;10.57;;;3.55;;
57746;SDS011;43580;44.014;20.466;2022-09-09T11:42:29;7.28;;;3.63;;
57746;SDS011;43580;44.014;20.466;2022-09-09T11:44:55;9.38;;;3.50;;
57746;SDS011;43580;44.014;20.466;2022-09-09T11:47:29;7.80;;;3.40;;
57746;SDS011;43580;44.014;20.466;2022-09-09T11:50:06;5.40;;;2.90;;
57746;SDS011;43580;44.014;20.466;2022-09-09T11:55:09;6.20;;;2.38;;
57746;SDS011;43580;44.014;20.466;2022-09-09T11:57:36;4.55;;;2.58;;
57746;SDS011;43580;44.014;20.466;2022-09-09T12:00:03;6.38;;;2.85;;
57746;SDS011;43580;44.014;20.466;2022-09-09T12:02:30;4.63;;;2.28;;
57746;SDS011;43580;44.014;20.466;2022-09-09T12:05:07;7.03;;;2.75;;
57746;SDS011;43580;44.014;20.466;2022-09-09T12:07:49;5.78;;;2.83;;
57746;SDS011;43580;44.014;20.466;2022-09-09T12:12:45;8.35;;;2.85;;
57746;SDS011;43580;44.014;20.466;2022-09-09T12:17:43;6.82;;;2.72;;
57746;SDS011;43580;44.014;20.466;2022-09-09T12:20:13;5.15;;;2.70;;
57746;SDS011;43580;44.014;20.466;2022-09-09T12:22:59;5.88;;;2.70;;
57746;SDS011;43580;44.014;20.466;2022-09-09T12:25:31;4.95;;;2.40;;
57746;SDS011;43580;44.014;20.466;2022-09-09T12:28:04;7.13;;;2.95;;
57746;SDS011;43580;44.014;20.466;2022-09-09T12:30:34;8.98;;;3.03;;
57746;SDS011;43580;44.014;20.466;2022-09-09T12:33:02;6.78;;;2.78;;
57746;SDS011;43580;44.014;20.466;2022-09-09T12:35:34;4.80;;;2.50;;
57746;SDS011;43580;44.014;20.466;2022-09-09T12:38:03;6.75;;;2.83;;
57746;SDS011;43580;44.014;20.466;2022-09-09T12:40:35;5.57;;;2.38;;
57746;SDS011;43580;44.014;20.466;2022-09-09T12:43:23;6.25;;;2.47;;
57746;SDS011;43580;44.014;20.466;2022-09-09T12:45:48;5.80;;;2.88;;
57746;SDS011;43580;44.014;20.466;2022-09-09T12:48:16;7.50;;;2.30;;
57746;SDS011;43580;44.014;20.466;2022-09-09T12:50:48;4.15;;;2.53;;
57746;SDS011;43580;44.014;20.466;2022-09-09T12:53:24;6.22;;;2.53;;
57746;SDS011;43580;44.014;20.466;2022-09-09T12:56:01;6.22;;;2.80;;
57746;SDS011;43580;44.014;20.466;2022-09-09T12:58:29;4.78;;;2.22;;
57746;SDS011;43580;44.014;20.466;2022-09-09T13:00:59;5.22;;;2.45;;
57746;SDS011;43580;44.014;20.466;2022-09-09T13:03:29;5.28;;;2.42;;
57746;SDS011;43580;44.014;20.466;2022-09-09T13:05:57;8.15;;;2.85;;
57746;SDS011;43580;44.014;20.466;2022-09-09T13:08:27;6.20;;;2.70;;
57746;SDS011;43580;44.014;20.466;2022-09-09T13:10:55;8.68;;;2.90;;
57746;SDS011;43580;44.014;20.466;2022-09-09T13:13:26;7.68;;;3.58;;
57746;SDS011;43580;44.014;20.466;2022-09-09T13:15:58;6.68;;;2.92;;
57746;SDS011;43580;44.014;20.466;2022-09-09T13:18:26;5.43;;;2.78;;
57746;SDS011;43580;44.014;20.466;2022-09-09T13:20:53;8.50;;;3.50;;
57746;SDS011;43580;44.014;20.466;2022-09-09T13:23:22;9.48;;;3.20;;
57746;SDS011;43580;44.014;20.466;2022-09-09T13:25:55;8.60;;;3.88;;
57746;SDS011;43580;44.014;20.466;2022-09-09T13:28:23;5.78;;;2.92;;
57746;SDS011;43580;44.014;20.466;2022-09-09T13:30:59;7.80;;;3.20;;
57746;SDS011;43580;44.014;20.466;2022-09-09T13:36:10;7.65;;;3.00;;
57746;SDS011;43580;44.014;20.466;2022-09-09T13:38:38;7.00;;;2.70;;
57746;SDS011;43580;44.014;20.466;2022-09-09T13:41:07;6.82;;;2.60;;
57746;SDS011;43580;44.014;20.466;2022-09-09T13:43:35;8.65;;;3.63;;
57746;SDS011;43580;44.014;20.466;2022-09-09T13:46:03;8.40;;;2.85;;
57746;SDS011;43580;44.014;20.466;2022-09-09T13:48:29;7.97;;;2.72;;
57746;SDS011;43580;44.014;20.466;2022-09-09T13:51:00;6.05;;;2.80;;
57746;SDS011;43580;44.014;20.466;2022-09-09T13:53:26;6.72;;;3.90;;
57746;SDS011;43580;44.014;20.466;2022-09-09T13:55:53;6.80;;;3.10;;
57746;SDS011;43580;44.014;20.466;2022-09-09T13:58:19;10.90;;;3.60;;
57746;SDS011;43580;44.014;20.466;2022-09-09T14:00:46;7.05;;;2.95;;
57746;SDS011;43580;44.014;20.466;2022-09-09T14:03:15;7.85;;;3.50;;
57746;SDS011;43580;44.014;20.466;2022-09-09T14:05:41;7.88;;;3.25;;
57746;SDS011;43580;44.014;20.466;2022-09-09T14:08:07;9.18;;;2.88;;
57746;SDS011;43580;44.014;20.466;2022-09-09T14:10:38;6.47;;;2.55;;
57746;SDS011;43580;44.014;20.466;2022-09-09T14:13:04;5.30;;;2.47;;
57746;SDS011;43580;44.014;20.466;2022-09-09T14:15:30;7.95;;;2.83;;
57746;SDS011;43580;44.014;20.466;2022-09-09T14:17:56;5.07;;;2.90;;
57746;SDS011;43580;44.014;20.466;2022-09-09T14:20:23;7.05;;;3.30;;
57746;SDS011;43580;44.014;20.466;2022-09-09T14:22:49;7.47;;;3.08;;
57746;SDS011;43580;44.014;20.466;2022-09-09T14:25:16;6.10;;;2.65;;
57746;SDS011;43580;44.014;20.466;2022-09-09T14:27:42;11.27;;;3.25;;
57746;SDS011;43580;44.014;20.466;2022-09-09T14:30:08;5.45;;;2.67;;
57746;SDS011;43580;44.014;20.466;2022-09-09T14:32:37;6.25;;;3.38;;
57746;SDS011;43580;44.014;20.466;2022-09-09T14:35:03;5.75;;;3.05;;
57746;SDS011;43580;44.014;20.466;2022-09-09T14:37:29;7.95;;;3.83;;
57746;SDS011;43580;44.014;20.466;2022-09-09T14:39:56;7.90;;;4.10;;
57746;SDS011;43580;44.014;20.466;2022-09-09T14:42:24;11.38;;;5.32;;
57746;SDS011;43580;44.014;20.466;2022-09-09T14:44:51;12.50;;;4.72;;
57746;SDS011;43580;44.014;20.466;2022-09-09T14:47:17;16.85;;;6.15;;
57746;SDS011;43580;44.014;20.466;2022-09-09T14:49:43;8.73;;;3.95;;
57746;SDS011;43580;44.014;20.466;2022-09-09T14:52:10;12.48;;;5.55;;
57746;SDS011;43580;44.014;20.466;2022-09-09T14:54:36;9.75;;;4.82;;
57746;SDS011;43580;44.014;20.466;2022-09-09T14:57:02;13.35;;;5.78;;
57746;SDS011;43580;44.014;20.466;2022-09-09T14:59:28;9.70;;;4.78;;
57746;SDS011;43580;44.014;20.466;2022-09-09T15:01:55;15.20;;;5.13;;
57746;SDS011;43580;44.014;20.466;2022-09-09T15:04:21;12.48;;;3.85;;
57746;SDS011;43580;44.014;20.466;2022-09-09T15:06:47;14.98;;;6.47;;
57746;SDS011;43580;44.014;20.466;2022-09-09T15:09:15;10.15;;;5.10;;
57746;SDS011;43580;44.014;20.466;2022-09-09T15:11:41;16.00;;;9.45;;
57746;SDS011;43580;44.014;20.466;2022-09-09T15:14:08;18.48;;;9.13;;
57746;SDS011;43580;44.014;20.466;2022-09-09T15:16:35;14.43;;;6.93;;
57746;SDS011;43580;44.014;20.466;2022-09-09T15:19:02;14.05;;;5.28;;
57746;SDS011;43580;44.014;20.466;2022-09-09T15:21:29;11.38;;;5.13;;
57746;SDS011;43580;44.014;20.466;2022-09-09T15:23:56;11.15;;;5.22;;
57746;SDS011;43580;44.014;20.466;2022-09-09T15:26:22;10.85;;;5.18;;
57746;SDS011;43580;44.014;20.466;2022-09-09T15:28:48;8.70;;;4.50;;
57746;SDS011;43580;44.014;20.466;2022-09-09T15:31:18;6.85;;;3.95;;
57746;SDS011;43580;44.014;20.466;2022-09-09T15:38:40;10.00;;;4.60;;
57746;SDS011;43580;44.014;20.466;2022-09-09T15:41:06;9.20;;;4.28;;
57746;SDS011;43580;44.014;20.466;2022-09-09T15:43:32;11.35;;;4.45;;
57746;SDS011;43580;44.014;20.466;2022-09-09T15:45:59;8.38;;;4.13;;
57746;SDS011;43580;44.014;20.466;2022-09-09T15:48:30;9.63;;;3.67;;
57746;SDS011;43580;44.014;20.466;2022-09-09T15:51:02;9.15;;;4.15;;
57746;SDS011;43580;44.014;20.466;2022-09-09T15:53:29;8.32;;;3.85;;
57746;SDS011;43580;44.014;20.466;2022-09-09T15:55:57;7.78;;;3.78;;
57746;SDS011;43580;44.014;20.466;2022-09-09T15:58:23;7.90;;;3.58;;
57746;SDS011;43580;44.014;20.466;2022-09-09T16:00:49;8.68;;;3.95;;
57746;SDS011;43580;44.014;20.466;2022-09-09T16:03:16;7.65;;;3.70;;
57746;SDS011;43580;44.014;20.466;2022-09-09T16:05:42;7.70;;;4.10;;
57746;SDS011;43580;44.014;20.466;2022-09-09T16:08:08;9.45;;;4.05;;
57746;SDS011;43580;44.014;20.466;2022-09-09T16:10:38;7.97;;;3.97;;
57746;SDS011;43580;44.014;20.466;2022-09-09T16:13:11;9.10;;;4.00;;
57746;SDS011;43580;44.014;20.466;2022-09-09T16:15:38;13.40;;;4.28;;
57746;SDS011;43580;44.014;20.466;2022-09-09T16:18:04;6.75;;;4.13;;
57746;SDS011;43580;44.014;20.466;2022-09-09T16:20:30;9.07;;;3.72;;
57746;SDS011;43580;44.014;20.466;2022-09-09T16:22:56;5.93;;;4.00;;
57746;SDS011;43580;44.014;20.466;2022-09-09T16:25:22;7.50;;;3.45;;
57746;SDS011;43580;44.014;20.466;2022-09-09T16:27:48;10.20;;;3.95;;
57746;SDS011;43580;44.014;20.466;2022-09-09T16:30:14;7.22;;;3.97;;
57746;SDS011;43580;44.014;20.466;2022-09-09T16:32:40;8.82;;;3.72;;
57746;SDS011;43580;44.014;20.466;2022-09-09T16:35:06;8.52;;;3.35;;
57746;SDS011;43580;44.014;20.466;2022-09-09T16:37:32;9.65;;;4.25;;
57746;SDS011;43580;44.014;20.466;2022-09-09T16:39:59;7.95;;;4.15;;